Euro IV — IQNH — position and weather

sailwx.info

Track history (hours):
 
Tides and Currents Weather Stations Pressure Air Temp Water Temp Dewpoint Dewpoint Depression Visibility Wind Speed Wind Dir Waves Ship Positions

Euro IV

Last reported at 2017-Aug-19 17:16 UTC. Time now 2017-Aug-20 02:17 UTC.
Position N 44°06' E 009°50'.

Length 25 m; draft 1.3 m.

Type: Passenger vessel. MMSI: 247131500.

Date/timePositionNaut miles runAvg speedWind from/ knotsBaromVisibWave heightAir tempDewpointWater temp
2017-Aug-19 17:16N 44°06' E 009°50'2 7.1
2017-Aug-19 17:00N 44°05' E 009°52'2 3.1
2017-Aug-19 16:30N 44°04' E 009°52'1 2.4
2017-Aug-19 16:01N 44°03' E 009°50'0 0.0
2017-Aug-19 15:31N 44°03' E 009°50'2 4.5
2017-Aug-19 15:01N 44°04' E 009°53'2 2.2
2017-Aug-19 14:00N 44°03' E 009°50'2 3.2
2017-Aug-19 13:30N 44°02' E 009°51'2 3.2
2017-Aug-19 13:00N 44°03' E 009°50'2 3.9
2017-Aug-19 12:31N 44°04' E 009°53'2 3.0
2017-Aug-19 12:00N 44°04' E 009°55'0 0.0
2017-Aug-19 11:30N 44°04' E 009°55'3 5.6
2017-Aug-19 10:57N 44°03' E 009°51'1 3.1
2017-Aug-19 10:30N 44°02' E 009°51'1 2.6
2017-Aug-19 10:00N 44°03' E 009°50'3 6.9
2017-Aug-19 09:30N 44°04' E 009°55'0 0.0
2017-Aug-19 09:00N 44°04' E 009°55'3 6.8
2017-Aug-19 08:30N 44°03' E 009°50'0 0.0
2017-Aug-19 08:00N 44°03' E 009°50'3 6.8
2017-Aug-19 07:30N 44°04' E 009°55'0 0.4
2017-Aug-19 07:00N 44°05' E 009°54'2 4.6
2017-Aug-19 06:31N 44°04' E 009°51'3 0.2
2017-Aug-18 17:22N 44°06' E 009°50'3 8.6
2017-Aug-18 17:01N 44°05' E 009°53'2 4.7
2017-Aug-18 16:30N 44°03' E 009°51'0 0.9
2017-Aug-18 16:00N 44°03' E 009°50'0 0.0
2017-Aug-18 15:30N 44°03' E 009°50'3 6.8
2017-Aug-18 15:00N 44°04' E 009°55'3 6.7
2017-Aug-18 14:30N 44°03' E 009°50'2 1.6
2017-Aug-18 13:30N 44°02' E 009°51'2 3.2
2017-Aug-18 13:00N 44°03' E 009°50'2 4.5
2017-Aug-18 12:31N 44°04' E 009°53'1 2.4
2017-Aug-18 12:00N 44°04' E 009°55'0 0.0
2017-Aug-18 11:30N 44°04' E 009°55'2 3.5
2017-Aug-18 11:00N 44°04' E 009°52'2 3.3
2017-Aug-18 10:30N 44°03' E 009°50'2 4.0
2017-Aug-18 10:00N 44°03' E 009°47'815.7
2017-Aug-18 09:30N 44°09' E 009°39'3 6.4
2017-Aug-18 09:00N 44°06' E 009°42'1 2.6
2017-Aug-18 08:30N 44°05' E 009°44'510.5
2017-Aug-18 08:00N 44°03' E 009°50'3 6.8
2017-Aug-18 07:30N 44°04' E 009°55'1 2.9
2017-Aug-18 07:00N 44°05' E 009°53'3 5.2
2017-Aug-18 06:30N 44°06' E 009°50'0 0.0
2017-Aug-17 22:00N 44°06' E 009°50'3 6.2
2017-Aug-17 21:31N 44°03' E 009°51'1 1.6
2017-Aug-17 21:01N 44°03' E 009°50'0 0.7
2017-Aug-17 20:30N 44°03' E 009°51'0 0.0
2017-Aug-17 20:00N 44°03' E 009°51'0 0.0
2017-Aug-17 19:30N 44°03' E 009°51'0 0.0
2017-Aug-17 19:01N 44°03' E 009°51'0 0.0
2017-Aug-17 18:31N 44°03' E 009°51'0 0.7
2017-Aug-17 17:59N 44°03' E 009°50'3 6.2
2017-Aug-17 17:31N 44°06' E 009°50'0 0.5
2017-Aug-17 17:01N 44°06' E 009°50'4 7.9
2017-Aug-17 16:30N 44°02' E 009°51'2 3.5
2017-Aug-17 16:00N 44°04' E 009°51'2 4.7
2017-Aug-17 15:31N 44°06' E 009°50'4 7.8
2017-Aug-17 15:00N 44°02' E 009°51'0 0.0
2017-Aug-17 14:30N 44°02' E 009°51'0 0.0
2017-Aug-17 14:00N 44°02' E 009°51'4 7.9
2017-Aug-17 13:30N 44°06' E 009°50'2 5.0
2017-Aug-17 13:01N 44°04' E 009°51'0 0.4
2017-Aug-17 12:30N 44°04' E 009°51'2 4.6
2017-Aug-17 12:01N 44°06' E 009°50'0 0.0
2017-Aug-17 11:30N 44°06' E 009°50'0 0.0
2017-Aug-17 11:01N 44°06' E 009°50'0 0.0
2017-Aug-17 10:31N 44°06' E 009°50'4 7.9
2017-Aug-17 10:00N 44°02' E 009°51'4 7.9
2017-Aug-17 09:30N 44°06' E 009°50'4 7.9
2017-Aug-17 09:00N 44°02' E 009°51'4 7.6
2017-Aug-17 08:31N 44°06' E 009°50'0 0.4
2017-Aug-17 08:00N 44°06' E 009°50'4 7.6
2017-Aug-17 07:30N 44°02' E 009°51'4 7.9
2017-Aug-17 07:01N 44°06' E 009°50'0 0.0
2017-Aug-17 06:29N 44°06' E 009°50'0 0.0
2017-Aug-16 17:01N 44°06' E 009°50'0 0.1
2017-Aug-16 17:00N 44°06' E 009°50'4 7.9
2017-Aug-16 16:30N 44°02' E 009°51'2 3.3
2017-Aug-16 16:01N 44°04' E 009°51'2 4.0
2017-Aug-16 15:30N 44°06' E 009°50'0 0.0
2017-Aug-16 15:01N 44°06' E 009°50'0 0.0
2017-Aug-16 14:31N 44°06' E 009°50'4 7.1
2017-Aug-16 14:00N 44°02' E 009°51'4 7.9
2017-Aug-16 13:31N 44°06' E 009°50'4 7.1
2017-Aug-16 13:01N 44°03' E 009°52'2 3.3
2017-Aug-16 12:30N 44°04' E 009°51'2 3.9
2017-Aug-16 12:00N 44°06' E 009°50'0 0.0
2017-Aug-16 11:30N 44°06' E 009°50'0 0.0
2017-Aug-16 11:00N 44°06' E 009°50'0 0.0
2017-Aug-16 10:30N 44°06' E 009°50'4 7.9
2017-Aug-16 10:00N 44°02' E 009°51'4 7.9
2017-Aug-16 09:30N 44°06' E 009°50'3 5.9
2017-Aug-16 09:00N 44°04' E 009°52'1 2.9
2017-Aug-16 08:30N 44°05' E 009°51'1 2.7
2017-Aug-16 08:00N 44°06' E 009°50'4 7.7
2017-Aug-16 07:30N 44°02' E 009°51'4 7.9
2017-Aug-16 07:00N 44°06' E 009°50'0 0.0
2017-Aug-16 06:30N 44°06' E 009°50'0 0.0
2017-Aug-15 17:04N 44°06' E 009°50'0 1.0
2017-Aug-15 17:00N 44°06' E 009°50'4 7.8
2017-Aug-15 16:30N 44°02' E 009°51'3 5.0
2017-Aug-15 16:00N 44°05' E 009°51'2 3.1
2017-Aug-15 15:30N 44°06' E 009°50'4 7.9
2017-Aug-15 15:00N 44°02' E 009°51'0 0.2
2017-Aug-15 14:30N 44°02' E 009°51'0 0.0
2017-Aug-15 14:00N 44°02' E 009°51'4 8.0
2017-Aug-15 13:30N 44°06' E 009°50'2 4.9
2017-Aug-15 13:00N 44°04' E 009°51'0 0.8
2017-Aug-15 12:30N 44°04' E 009°51'2 4.2
2017-Aug-15 12:01N 44°06' E 009°50'0 0.0
2017-Aug-15 11:31N 44°06' E 009°50'0 0.0
2017-Aug-15 11:01N 44°06' E 009°50'0 0.0
2017-Aug-15 10:30N 44°06' E 009°50'4 8.0
2017-Aug-15 10:01N 44°02' E 009°51'4 7.9
2017-Aug-15 09:30N 44°06' E 009°50'3 6.5
2017-Aug-15 09:00N 44°03' E 009°52'2 3.3
2017-Aug-15 08:30N 44°05' E 009°51'1 2.4
2017-Aug-15 08:00N 44°06' E 009°50'4 7.3
2017-Aug-15 07:31N 44°02' E 009°51'4 7.8
2017-Aug-15 07:00N 44°06' E 009°50'0 0.0
2017-Aug-15 06:30N 44°06' E 009°50'0 0.0
2017-Aug-14 17:06N 44°06' E 009°50'0 0.0
2017-Aug-14 17:00N 44°06' E 009°50'4 7.9
2017-Aug-14 16:30N 44°02' E 009°51'1 2.1
2017-Aug-14 16:00N 44°03' E 009°52'3 6.6
2017-Aug-14 15:30N 44°06' E 009°50'4 8.2
2017-Aug-14 15:00N 44°02' E 009°51'0 0.6
2017-Aug-14 14:30N 44°02' E 009°51'0 0.2
2017-Aug-14 14:00N 44°02' E 009°51'4 7.9
2017-Aug-14 13:30N 44°06' E 009°50'4 7.8
2017-Aug-14 13:00N 44°03' E 009°51'2 3.9
2017-Aug-14 12:30N 44°04' E 009°51'2 3.9
2017-Aug-14 11:59N 44°06' E 009°50'0 0.0
2017-Aug-14 11:30N 44°06' E 009°50'0 0.0
2017-Aug-14 11:00N 44°06' E 009°50'2 4.4
2017-Aug-14 10:31N 44°04' E 009°51'1 2.4
2017-Aug-14 10:00N 44°03' E 009°52'3 6.7
2017-Aug-14 09:30N 44°06' E 009°50'4 7.9
2017-Aug-14 09:01N 44°02' E 009°51'3 6.3
2017-Aug-14 08:31N 44°05' E 009°50'1 1.1
2017-Aug-14 08:00N 44°06' E 009°50'4 7.3
2017-Aug-14 07:30N 44°02' E 009°51'4 7.9
2017-Aug-14 07:00N 44°06' E 009°50'0 0.0
2017-Aug-14 06:31N 44°06' E 009°50'0 0.0
2017-Aug-13 16:53N 44°06' E 009°50'3 7.5
2017-Aug-13 16:31N 44°04' E 009°51'1 1.6
2017-Aug-13 16:01N 44°03' E 009°50'0 0.0
2017-Aug-13 15:31N 44°03' E 009°50'2 3.2
2017-Aug-13 15:01N 44°04' E 009°52'0 0.1
2017-Aug-13 14:31N 44°04' E 009°52'2 3.2
2017-Aug-13 14:01N 44°03' E 009°50'2 3.8
2017-Aug-13 13:31N 44°01' E 009°51'2 3.9
2017-Aug-13 13:01N 44°03' E 009°50'2 4.3
2017-Aug-13 12:30N 44°04' E 009°53'1 2.6
2017-Aug-13 12:00N 44°04' E 009°55'0 0.0
2017-Aug-13 11:31N 44°04' E 009°55'3 5.7
2017-Aug-13 11:00N 44°03' E 009°51'1 2.6
2017-Aug-13 10:30N 44°02' E 009°51'1 2.2
2017-Aug-13 10:00N 44°03' E 009°50'3 6.9
2017-Aug-13 09:30N 44°04' E 009°55'0 0.0
2017-Aug-13 09:00N 44°04' E 009°55'3 6.9
2017-Aug-13 08:30N 44°03' E 009°50'0 0.0
2017-Aug-13 08:00N 44°03' E 009°50'3 6.9
2017-Aug-13 07:30N 44°04' E 009°55'0 0.6
2017-Aug-13 07:00N 44°05' E 009°54'4 7.4
2017-Aug-13 06:30N 44°06' E 009°50'0 0.0
2017-Aug-12 17:15N 44°06' E 009°50'1 5.4
2017-Aug-12 17:00N 44°06' E 009°51'2 4.0
2017-Aug-12 16:31N 44°04' E 009°52'1 2.7
2017-Aug-12 16:00N 44°03' E 009°50'0 0.1
2017-Aug-12 15:30N 44°03' E 009°50'2 3.0
2017-Aug-12 15:00N 44°04' E 009°52'0 0.5
2017-Aug-12 14:30N 44°04' E 009°52'1 2.2
2017-Aug-12 13:59N 44°03' E 009°50'2 3.6
2017-Aug-12 13:30N 44°01' E 009°51'2 3.4
2017-Aug-12 13:00N 44°03' E 009°50'2 4.1
2017-Aug-12 12:30N 44°04' E 009°53'1 2.8
2017-Aug-12 12:01N 44°04' E 009°55'0 0.0
2017-Aug-12 11:30N 44°04' E 009°55'2 4.5
2017-Aug-12 11:01N 44°04' E 009°52'2 3.1
2017-Aug-12 10:31N 44°02' E 009°50'1 1.4
2017-Aug-12 10:01N 44°03' E 009°50'3 6.9
2017-Aug-12 09:31N 44°04' E 009°55'0 0.0
2017-Aug-12 09:00N 44°04' E 009°55'3 6.8
2017-Aug-12 08:30N 44°03' E 009°50'0 0.0
2017-Aug-12 08:00N 44°03' E 009°50'3 6.9
2017-Aug-12 07:31N 44°04' E 009°55'3 4.7
2017-Aug-12 06:58N 44°05' E 009°51'1 0.0
2017-Aug-10 17:09N 44°06' E 009°50'0 1.6
2017-Aug-10 17:00N 44°06' E 009°50'4 7.8
2017-Aug-10 16:30N 44°02' E 009°51'3 5.2
2017-Aug-10 16:00N 44°05' E 009°51'1 2.9
2017-Aug-10 15:30N 44°06' E 009°50'4 7.8
2017-Aug-10 15:00N 44°02' E 009°51'0 0.0
2017-Aug-10 14:30N 44°02' E 009°51'0 0.0
2017-Aug-10 14:00N 44°02' E 009°51'4 7.9
2017-Aug-10 13:30N 44°06' E 009°50'2 3.4
2017-Aug-10 13:01N 44°05' E 009°51'0 0.9
2017-Aug-10 12:30N 44°04' E 009°51'2 4.2
2017-Aug-10 12:00N 44°06' E 009°50'0 0.0
2017-Aug-10 11:30N 44°06' E 009°50'0 0.0
2017-Aug-10 11:00N 44°06' E 009°50'0 0.0
2017-Aug-10 10:30N 44°06' E 009°50'4 7.8
2017-Aug-10 10:00N 44°02' E 009°51'4 8.0
2017-Aug-10 09:31N 44°06' E 009°50'2 3.4
2017-Aug-10 09:01N 44°05' E 009°51'0 0.7
2017-Aug-10 08:31N 44°04' E 009°51'2 4.0
2017-Aug-10 08:01N 44°06' E 009°50'4 7.9
2017-Aug-10 07:30N 44°02' E 009°51'4 7.9
2017-Aug-10 07:00N 44°06' E 009°50'0 0.0
2017-Aug-10 06:30N 44°06' E 009°50'  
Track history (hours):
 
Tides and Currents Weather Stations Pressure Air Temp Water Temp Dewpoint Dewpoint Depression Visibility Wind Speed Wind Dir Waves Ship Positions

Euro IV

Last reported at 2017-Aug-19 17:16 UTC. Time now 2017-Aug-20 02:17 UTC.
Position N 44°06' E 009°50'.

Length 25 m; draft 1.3 m.

Type: Passenger vessel. MMSI: 247131500.

Date/timePositionNaut miles runAvg speedWind from/ knotsBaromVisibWave heightAir tempDewpointWater temp
2017-Aug-19 17:16N 44°06' E 009°50'2 7.1
2017-Aug-19 17:00N 44°05' E 009°52'2 3.1
2017-Aug-19 16:30N 44°04' E 009°52'1 2.4
2017-Aug-19 16:01N 44°03' E 009°50'0 0.0
2017-Aug-19 15:31N 44°03' E 009°50'2 4.5
2017-Aug-19 15:01N 44°04' E 009°53'2 2.2
2017-Aug-19 14:00N 44°03' E 009°50'2 3.2
2017-Aug-19 13:30N 44°02' E 009°51'2 3.2
2017-Aug-19 13:00N 44°03' E 009°50'2 3.9
2017-Aug-19 12:31N 44°04' E 009°53'2 3.0
2017-Aug-19 12:00N 44°04' E 009°55'0 0.0
2017-Aug-19 11:30N 44°04' E 009°55'3 5.6
2017-Aug-19 10:57N 44°03' E 009°51'1 3.1
2017-Aug-19 10:30N 44°02' E 009°51'1 2.6
2017-Aug-19 10:00N 44°03' E 009°50'3 6.9
2017-Aug-19 09:30N 44°04' E 009°55'0 0.0
2017-Aug-19 09:00N 44°04' E 009°55'3 6.8
2017-Aug-19 08:30N 44°03' E 009°50'0 0.0
2017-Aug-19 08:00N 44°03' E 009°50'3 6.8
2017-Aug-19 07:30N 44°04' E 009°55'0 0.4
2017-Aug-19 07:00N 44°05' E 009°54'2 4.6
2017-Aug-19 06:31N 44°04' E 009°51'3 0.2
2017-Aug-18 17:22N 44°06' E 009°50'3 8.6
2017-Aug-18 17:01N 44°05' E 009°53'2 4.7
2017-Aug-18 16:30N 44°03' E 009°51'0 0.9
2017-Aug-18 16:00N 44°03' E 009°50'0 0.0
2017-Aug-18 15:30N 44°03' E 009°50'3 6.8
2017-Aug-18 15:00N 44°04' E 009°55'3 6.7
2017-Aug-18 14:30N 44°03' E 009°50'2 1.6
2017-Aug-18 13:30N 44°02' E 009°51'2 3.2
2017-Aug-18 13:00N 44°03' E 009°50'2 4.5
2017-Aug-18 12:31N 44°04' E 009°53'1 2.4
2017-Aug-18 12:00N 44°04' E 009°55'0 0.0
2017-Aug-18 11:30N 44°04' E 009°55'2 3.5
2017-Aug-18 11:00N 44°04' E 009°52'2 3.3
2017-Aug-18 10:30N 44°03' E 009°50'2 4.0
2017-Aug-18 10:00N 44°03' E 009°47'815.7
2017-Aug-18 09:30N 44°09' E 009°39'3 6.4
2017-Aug-18 09:00N 44°06' E 009°42'1 2.6
2017-Aug-18 08:30N 44°05' E 009°44'510.5
2017-Aug-18 08:00N 44°03' E 009°50'3 6.8
2017-Aug-18 07:30N 44°04' E 009°55'1 2.9
2017-Aug-18 07:00N 44°05' E 009°53'3 5.2
2017-Aug-18 06:30N 44°06' E 009°50'0 0.0
2017-Aug-17 22:00N 44°06' E 009°50'3 6.2
2017-Aug-17 21:31N 44°03' E 009°51'1 1.6
2017-Aug-17 21:01N 44°03' E 009°50'0 0.7
2017-Aug-17 20:30N 44°03' E 009°51'0 0.0
2017-Aug-17 20:00N 44°03' E 009°51'0 0.0
2017-Aug-17 19:30N 44°03' E 009°51'0 0.0
2017-Aug-17 19:01N 44°03' E 009°51'0 0.0
2017-Aug-17 18:31N 44°03' E 009°51'0 0.7
2017-Aug-17 17:59N 44°03' E 009°50'3 6.2
2017-Aug-17 17:31N 44°06' E 009°50'0 0.5
2017-Aug-17 17:01N 44°06' E 009°50'4 7.9
2017-Aug-17 16:30N 44°02' E 009°51'2 3.5
2017-Aug-17 16:00N 44°04' E 009°51'2 4.7
2017-Aug-17 15:31N 44°06' E 009°50'4 7.8
2017-Aug-17 15:00N 44°02' E 009°51'0 0.0
2017-Aug-17 14:30N 44°02' E 009°51'0 0.0
2017-Aug-17 14:00N 44°02' E 009°51'4 7.9
2017-Aug-17 13:30N 44°06' E 009°50'2 5.0
2017-Aug-17 13:01N 44°04' E 009°51'0 0.4
2017-Aug-17 12:30N 44°04' E 009°51'2 4.6
2017-Aug-17 12:01N 44°06' E 009°50'0 0.0
2017-Aug-17 11:30N 44°06' E 009°50'0 0.0
2017-Aug-17 11:01N 44°06' E 009°50'0 0.0
2017-Aug-17 10:31N 44°06' E 009°50'4 7.9
2017-Aug-17 10:00N 44°02' E 009°51'4 7.9
2017-Aug-17 09:30N 44°06' E 009°50'4 7.9
2017-Aug-17 09:00N 44°02' E 009°51'4 7.6
2017-Aug-17 08:31N 44°06' E 009°50'0 0.4
2017-Aug-17 08:00N 44°06' E 009°50'4 7.6
2017-Aug-17 07:30N 44°02' E 009°51'4 7.9
2017-Aug-17 07:01N 44°06' E 009°50'0 0.0
2017-Aug-17 06:29N 44°06' E 009°50'0 0.0
2017-Aug-16 17:01N 44°06' E 009°50'0 0.1
2017-Aug-16 17:00N 44°06' E 009°50'4 7.9
2017-Aug-16 16:30N 44°02' E 009°51'2 3.3
2017-Aug-16 16:01N 44°04' E 009°51'2 4.0
2017-Aug-16 15:30N 44°06' E 009°50'0 0.0
2017-Aug-16 15:01N 44°06' E 009°50'0 0.0
2017-Aug-16 14:31N 44°06' E 009°50'4 7.1
2017-Aug-16 14:00N 44°02' E 009°51'4 7.9
2017-Aug-16 13:31N 44°06' E 009°50'4 7.1
2017-Aug-16 13:01N 44°03' E 009°52'2 3.3
2017-Aug-16 12:30N 44°04' E 009°51'2 3.9
2017-Aug-16 12:00N 44°06' E 009°50'0 0.0
2017-Aug-16 11:30N 44°06' E 009°50'0 0.0
2017-Aug-16 11:00N 44°06' E 009°50'0 0.0
2017-Aug-16 10:30N 44°06' E 009°50'4 7.9
2017-Aug-16 10:00N 44°02' E 009°51'4 7.9
2017-Aug-16 09:30N 44°06' E 009°50'3 5.9
2017-Aug-16 09:00N 44°04' E 009°52'1 2.9
2017-Aug-16 08:30N 44°05' E 009°51'1 2.7
2017-Aug-16 08:00N 44°06' E 009°50'4 7.7
2017-Aug-16 07:30N 44°02' E 009°51'4 7.9
2017-Aug-16 07:00N 44°06' E 009°50'0 0.0
2017-Aug-16 06:30N 44°06' E 009°50'0 0.0
2017-Aug-15 17:04N 44°06' E 009°50'0 1.0
2017-Aug-15 17:00N 44°06' E 009°50'4 7.8
2017-Aug-15 16:30N 44°02' E 009°51'3 5.0
2017-Aug-15 16:00N 44°05' E 009°51'2 3.1
2017-Aug-15 15:30N 44°06' E 009°50'4 7.9
2017-Aug-15 15:00N 44°02' E 009°51'0 0.2
2017-Aug-15 14:30N 44°02' E 009°51'0 0.0
2017-Aug-15 14:00N 44°02' E 009°51'4 8.0
2017-Aug-15 13:30N 44°06' E 009°50'2 4.9
2017-Aug-15 13:00N 44°04' E 009°51'0 0.8
2017-Aug-15 12:30N 44°04' E 009°51'2 4.2
2017-Aug-15 12:01N 44°06' E 009°50'0 0.0
2017-Aug-15 11:31N 44°06' E 009°50'0 0.0
2017-Aug-15 11:01N 44°06' E 009°50'0 0.0
2017-Aug-15 10:30N 44°06' E 009°50'4 8.0
2017-Aug-15 10:01N 44°02' E 009°51'4 7.9
2017-Aug-15 09:30N 44°06' E 009°50'3 6.5
2017-Aug-15 09:00N 44°03' E 009°52'2 3.3
2017-Aug-15 08:30N 44°05' E 009°51'1 2.4
2017-Aug-15 08:00N 44°06' E 009°50'4 7.3
2017-Aug-15 07:31N 44°02' E 009°51'4 7.8
2017-Aug-15 07:00N 44°06' E 009°50'0 0.0
2017-Aug-15 06:30N 44°06' E 009°50'0 0.0
2017-Aug-14 17:06N 44°06' E 009°50'0 0.0
2017-Aug-14 17:00N 44°06' E 009°50'4 7.9
2017-Aug-14 16:30N 44°02' E 009°51'1 2.1
2017-Aug-14 16:00N 44°03' E 009°52'3 6.6
2017-Aug-14 15:30N 44°06' E 009°50'4 8.2
2017-Aug-14 15:00N 44°02' E 009°51'0 0.6
2017-Aug-14 14:30N 44°02' E 009°51'0 0.2
2017-Aug-14 14:00N 44°02' E 009°51'4 7.9
2017-Aug-14 13:30N 44°06' E 009°50'4 7.8
2017-Aug-14 13:00N 44°03' E 009°51'2 3.9
2017-Aug-14 12:30N 44°04' E 009°51'2 3.9
2017-Aug-14 11:59N 44°06' E 009°50'0 0.0
2017-Aug-14 11:30N 44°06' E 009°50'0 0.0
2017-Aug-14 11:00N 44°06' E 009°50'2 4.4
2017-Aug-14 10:31N 44°04' E 009°51'1 2.4
2017-Aug-14 10:00N 44°03' E 009°52'3 6.7
2017-Aug-14 09:30N 44°06' E 009°50'4 7.9
2017-Aug-14 09:01N 44°02' E 009°51'3 6.3
2017-Aug-14 08:31N 44°05' E 009°50'1 1.1
2017-Aug-14 08:00N 44°06' E 009°50'4 7.3
2017-Aug-14 07:30N 44°02' E 009°51'4 7.9
2017-Aug-14 07:00N 44°06' E 009°50'0 0.0
2017-Aug-14 06:31N 44°06' E 009°50'0 0.0
2017-Aug-13 16:53N 44°06' E 009°50'3 7.5
2017-Aug-13 16:31N 44°04' E 009°51'1 1.6
2017-Aug-13 16:01N 44°03' E 009°50'0 0.0
2017-Aug-13 15:31N 44°03' E 009°50'2 3.2
2017-Aug-13 15:01N 44°04' E 009°52'0 0.1
2017-Aug-13 14:31N 44°04' E 009°52'2 3.2
2017-Aug-13 14:01N 44°03' E 009°50'2 3.8
2017-Aug-13 13:31N 44°01' E 009°51'2 3.9
2017-Aug-13 13:01N 44°03' E 009°50'2 4.3
2017-Aug-13 12:30N 44°04' E 009°53'1 2.6
2017-Aug-13 12:00N 44°04' E 009°55'0 0.0
2017-Aug-13 11:31N 44°04' E 009°55'3 5.7
2017-Aug-13 11:00N 44°03' E 009°51'1 2.6
2017-Aug-13 10:30N 44°02' E 009°51'1 2.2
2017-Aug-13 10:00N 44°03' E 009°50'3 6.9
2017-Aug-13 09:30N 44°04' E 009°55'0 0.0
2017-Aug-13 09:00N 44°04' E 009°55'3 6.9
2017-Aug-13 08:30N 44°03' E 009°50'0 0.0
2017-Aug-13 08:00N 44°03' E 009°50'3 6.9
2017-Aug-13 07:30N 44°04' E 009°55'0 0.6
2017-Aug-13 07:00N 44°05' E 009°54'4 7.4
2017-Aug-13 06:30N 44°06' E 009°50'0 0.0
2017-Aug-12 17:15N 44°06' E 009°50'1 5.4
2017-Aug-12 17:00N 44°06' E 009°51'2 4.0
2017-Aug-12 16:31N 44°04' E 009°52'1 2.7
2017-Aug-12 16:00N 44°03' E 009°50'0 0.1
2017-Aug-12 15:30N 44°03' E 009°50'2 3.0
2017-Aug-12 15:00N 44°04' E 009°52'0 0.5
2017-Aug-12 14:30N 44°04' E 009°52'1 2.2
2017-Aug-12 13:59N 44°03' E 009°50'2 3.6
2017-Aug-12 13:30N 44°01' E 009°51'2 3.4
2017-Aug-12 13:00N 44°03' E 009°50'2 4.1
2017-Aug-12 12:30N 44°04' E 009°53'1 2.8
2017-Aug-12 12:01N 44°04' E 009°55'0 0.0
2017-Aug-12 11:30N 44°04' E 009°55'2 4.5
2017-Aug-12 11:01N 44°04' E 009°52'2 3.1
2017-Aug-12 10:31N 44°02' E 009°50'1 1.4
2017-Aug-12 10:01N 44°03' E 009°50'3 6.9
2017-Aug-12 09:31N 44°04' E 009°55'0 0.0
2017-Aug-12 09:00N 44°04' E 009°55'3 6.8
2017-Aug-12 08:30N 44°03' E 009°50'0 0.0
2017-Aug-12 08:00N 44°03' E 009°50'3 6.9
2017-Aug-12 07:31N 44°04' E 009°55'3 4.7
2017-Aug-12 06:58N 44°05' E 009°51'1 0.0
2017-Aug-10 17:09N 44°06' E 009°50'0 1.6
2017-Aug-10 17:00N 44°06' E 009°50'4 7.8
2017-Aug-10 16:30N 44°02' E 009°51'3 5.2
2017-Aug-10 16:00N 44°05' E 009°51'1 2.9
2017-Aug-10 15:30N 44°06' E 009°50'4 7.8
2017-Aug-10 15:00N 44°02' E 009°51'0 0.0
2017-Aug-10 14:30N 44°02' E 009°51'0 0.0
2017-Aug-10 14:00N 44°02' E 009°51'4 7.9
2017-Aug-10 13:30N 44°06' E 009°50'2 3.4
2017-Aug-10 13:01N 44°05' E 009°51'0 0.9
2017-Aug-10 12:30N 44°04' E 009°51'2 4.2
2017-Aug-10 12:00N 44°06' E 009°50'0 0.0
2017-Aug-10 11:30N 44°06' E 009°50'0 0.0
2017-Aug-10 11:00N 44°06' E 009°50'0 0.0
2017-Aug-10 10:30N 44°06' E 009°50'4 7.8
2017-Aug-10 10:00N 44°02' E 009°51'4 8.0
2017-Aug-10 09:31N 44°06' E 009°50'2 3.4
2017-Aug-10 09:01N 44°05' E 009°51'0 0.7
2017-Aug-10 08:31N 44°04' E 009°51'2 4.0
2017-Aug-10 08:01N 44°06' E 009°50'4 7.9
2017-Aug-10 07:30N 44°02' E 009°51'4 7.9
2017-Aug-10 07:00N 44°06' E 009°50'0 0.0
2017-Aug-10 06:30N 44°06' E 009°50'  

Dump ship's entire track history